createdAt,value
2017-03-02T00:00:29.945Z,95.5
2017-03-02T00:01:32.470Z,95.5
2017-03-02T00:03:37.998Z,95.5
2017-03-02T00:04:40.909Z,95.5
2017-03-02T00:05:42.920Z,95.5
2017-03-02T00:06:45.250Z,95.5
2017-03-02T00:07:48.100Z,95.5
2017-03-02T00:08:50.956Z,95.5
2017-03-02T00:09:53.312Z,95.5
2017-03-02T00:10:55.833Z,95.5
2017-03-02T00:11:58.355Z,95.5
2017-03-02T00:13:00.880Z,95.5
2017-03-02T00:14:03.631Z,95.5
2017-03-02T00:15:06.134Z,95.5
2017-03-02T00:16:08.664Z,95.6
2017-03-02T00:17:11.169Z,95.6
2017-03-02T00:18:13.672Z,95.6
2017-03-02T00:19:16.975Z,95.6
2017-03-02T00:20:18.987Z,95.5
2017-03-02T00:21:21.825Z,95.6
2017-03-02T00:22:24.345Z,95.6
2017-03-02T00:23:26.679Z,95.6
2017-03-02T00:24:29.490Z,95.6
2017-03-02T00:25:31.994Z,95.6
2017-03-02T00:26:34.505Z,95.6
2017-03-02T00:27:37.076Z,95.6
2017-03-02T00:28:40.157Z,95.6
2017-03-02T00:29:42.525Z,95.6
2017-03-02T00:30:45.025Z,95.6
2017-03-02T00:31:47.540Z,95.6
2017-03-02T00:32:50.053Z,95.6
2017-03-02T00:33:52.571Z,95.6
2017-03-02T00:34:55.326Z,95.6
2017-03-02T00:35:57.844Z,95.6
2017-03-02T00:37:00.370Z,95.6
2017-03-02T00:38:02.880Z,95.6
2017-03-02T00:39:05.397Z,95.6
2017-03-02T00:40:07.993Z,95.6
2017-03-02T00:41:10.508Z,95.6
2017-03-02T00:42:13.049Z,95.6
2017-03-02T00:43:15.560Z,95.6
2017-03-02T00:44:18.582Z,95.6
2017-03-02T00:45:21.399Z,95.6
2017-03-02T00:46:23.980Z,95.6
2017-03-02T00:47:26.349Z,95.6
2017-03-02T00:48:28.913Z,95.6
2017-03-02T00:49:31.431Z,95.6
2017-03-02T00:50:34.239Z,95.6
2017-03-02T00:51:36.236Z,95.6
2017-03-02T00:52:38.739Z,95.6
2017-03-02T00:53:41.757Z,95.6
2017-03-02T00:54:44.267Z,95.6
2017-03-02T00:55:47.065Z,95.6
2017-03-02T00:56:49.068Z,95.6
2017-03-02T00:57:52.069Z,95.6
2017-03-02T00:58:54.573Z,95.6
2017-03-02T00:59:57.081Z,95.6
2017-03-02T01:00:59.947Z,95.6
2017-03-02T01:02:01.976Z,95.6
2017-03-02T01:03:04.522Z,95.6
2017-03-02T01:04:07.549Z,95.6
2017-03-02T01:05:10.076Z,95.6
2017-03-02T01:06:12.829Z,95.6
2017-03-02T01:07:14.846Z,95.6
2017-03-02T01:08:17.869Z,95.6
2017-03-02T01:09:20.217Z,95.6
2017-03-02T01:10:22.716Z,95.6
2017-03-02T01:11:25.474Z,95.6
2017-03-02T01:12:27.988Z,95.6
2017-03-02T01:13:30.508Z,95.6
2017-03-02T01:14:33.048Z,95.6
2017-03-02T01:15:35.895Z,95.6
2017-03-02T01:16:38.646Z,95.6
2017-03-02T01:17:40.664Z,95.6
2017-03-02T01:18:43.166Z,95.6
2017-03-02T01:19:46.221Z,95.6
2017-03-02T01:20:48.739Z,95.6
2017-03-02T01:21:51.566Z,95.6
2017-03-02T01:22:53.479Z,95.6
2017-03-02T01:23:57.020Z,95.6
2017-03-02T01:24:59.019Z,95.6
2017-03-02T01:26:01.522Z,95.6
2017-03-02T01:27:04.344Z,95.6
2017-03-02T01:29:09.250Z,95.6
2017-03-02T01:30:11.755Z,95.6
2017-03-02T01:31:14.091Z,95.6
2017-03-02T01:32:17.344Z,95.6
2017-03-02T01:33:19.357Z,95.6
2017-03-02T01:34:21.861Z,95.6
2017-03-02T01:35:24.886Z,95.6
2017-03-02T01:36:27.401Z,95.6
2017-03-02T01:37:30.153Z,95.6
2017-03-02T01:38:32.573Z,95.6
2017-03-02T01:39:35.078Z,95.6
2017-03-02T01:40:37.579Z,95.6
2017-03-02T01:41:40.083Z,95.6
2017-03-02T01:42:42.898Z,95.6
2017-03-02T01:43:45.406Z,95.6
2017-03-02T01:44:48.315Z,95.6
2017-03-02T01:45:50.325Z,95.6
2017-03-02T01:46:52.828Z,95.6
2017-03-02T01:47:55.592Z,95.6
2017-03-02T01:48:58.093Z,95.6
2017-03-02T01:50:00.610Z,95.6
2017-03-02T01:51:03.121Z,95.6
2017-03-02T01:52:06.133Z,95.6
2017-03-02T01:53:09.436Z,95.6
2017-03-02T01:54:10.947Z,95.6
2017-03-02T01:55:14.336Z,95.6
2017-03-02T01:56:16.341Z,95.6
2017-03-02T01:57:18.838Z,95.6
2017-03-02T01:58:21.589Z,95.6
2017-03-02T01:59:24.089Z,95.6
2017-03-02T02:00:26.606Z,95.6
2017-03-02T02:01:29.116Z,95.6
2017-03-02T02:02:31.667Z,95.6
2017-03-02T02:03:34.441Z,95.6
2017-03-02T02:04:36.948Z,95.6
2017-03-02T02:05:39.465Z,95.6
2017-03-02T02:06:42.024Z,95.6
2017-03-02T02:07:44.534Z,95.6
2017-03-02T02:08:47.288Z,95.6
2017-03-02T02:09:49.817Z,95.6
2017-03-02T02:11:54.556Z,95.6
2017-03-02T02:12:57.565Z,95.6
2017-03-02T02:14:01.013Z,95.6
2017-03-02T02:15:02.526Z,95.6
2017-03-02T02:16:05.030Z,95.6
2017-03-02T02:17:07.944Z,95.6
2017-03-02T02:18:10.446Z,95.6
2017-03-02T02:19:13.263Z,95.6
2017-03-02T02:20:15.780Z,95.6
2017-03-02T02:21:18.279Z,95.6
2017-03-02T02:22:20.788Z,95.6
2017-03-02T02:23:23.337Z,95.6
2017-03-02T02:24:26.096Z,95.6
2017-03-02T02:25:28.605Z,95.6
2017-03-02T02:26:31.109Z,95.6
2017-03-02T02:27:33.633Z,95.6
2017-03-02T02:28:36.145Z,95.6
2017-03-02T02:29:38.900Z,95.6
2017-03-02T02:30:41.411Z,95.6
2017-03-02T02:31:43.839Z,95.6
2017-03-02T02:32:46.359Z,95.6
2017-03-02T02:33:49.200Z,95.6
2017-03-02T02:34:52.032Z,95.6
2017-03-02T02:35:54.058Z,95.6
2017-03-02T02:36:56.921Z,95.6
2017-03-02T02:37:59.430Z,95.6
2017-03-02T02:39:01.767Z,95.6
2017-03-02T02:40:05.035Z,95.6
2017-03-02T02:41:06.880Z,95.6
2017-03-02T02:42:09.901Z,95.6
2017-03-02T02:43:12.417Z,95.6
2017-03-02T02:44:14.932Z,95.6
2017-03-02T02:45:17.697Z,95.6
2017-03-02T02:46:20.030Z,95.6
2017-03-02T02:47:22.408Z,95.6
2017-03-02T02:48:25.430Z,95.6
2017-03-02T02:49:27.984Z,95.6
2017-03-02T02:50:30.791Z,95.6
2017-03-02T02:51:32.800Z,95.6
2017-03-02T02:53:38.223Z,95.6
2017-03-02T02:54:40.746Z,95.6
2017-03-02T02:55:43.539Z,95.6
2017-03-02T02:56:46.593Z,95.6
2017-03-02T02:57:48.589Z,95.6
2017-03-02T02:58:50.930Z,95.6
2017-03-02T02:59:53.434Z,95.6
2017-03-02T03:00:56.713Z,95.6
2017-03-02T03:01:58.723Z,95.6
2017-03-02T03:03:01.267Z,95.6
2017-03-02T03:04:04.116Z,95.6
2017-03-02T03:05:06.636Z,95.6
2017-03-02T03:06:09.390Z,95.6
2017-03-02T03:07:11.893Z,95.6
2017-03-02T03:08:14.394Z,95.6
2017-03-02T03:09:16.922Z,95.6
2017-03-02T03:11:22.488Z,95.6
2017-03-02T03:12:24.826Z,95.6
2017-03-02T03:13:27.344Z,95.6
2017-03-02T03:14:29.562Z,95.6
2017-03-02T03:16:35.236Z,95.6
2017-03-02T03:17:37.756Z,95.6
2017-03-02T03:18:40.294Z,95.6
2017-03-02T03:19:42.808Z,95.6
2017-03-02T03:20:45.313Z,95.6
2017-03-02T03:21:48.088Z,95.6
2017-03-02T03:22:50.632Z,95.6
2017-03-02T03:23:52.972Z,95.5
2017-03-02T03:24:55.474Z,95.5
2017-03-02T03:25:57.977Z,95.5
2017-03-02T03:27:01.281Z,95.5
2017-03-02T03:28:03.285Z,95.5
2017-03-02T03:29:05.832Z,95.5
2017-03-02T03:30:08.890Z,95.5
2017-03-02T03:31:11.230Z,95.5
2017-03-02T03:32:14.045Z,95.5
2017-03-02T03:33:16.357Z,95.5
2017-03-02T03:34:18.819Z,95.5
2017-03-02T03:35:21.615Z,95.5
2017-03-02T03:36:23.892Z,95.5
2017-03-02T03:37:27.100Z,95.5
2017-03-02T03:38:29.437Z,95.5
2017-03-02T03:39:31.930Z,95.5
2017-03-02T03:40:34.416Z,95.5
2017-03-02T03:41:36.873Z,95.5
2017-03-02T03:42:39.580Z,95.5
2017-03-02T03:44:44.951Z,95.5
2017-03-02T03:45:47.402Z,95.5
2017-03-02T03:46:49.704Z,95.5
2017-03-02T03:47:52.909Z,95.5
2017-03-02T03:48:54.711Z,95.5
2017-03-02T03:49:57.688Z,95.5
2017-03-02T03:51:00.161Z,95.5
2017-03-02T03:53:05.895Z,95.5
2017-03-02T03:54:08.185Z,95.5
2017-03-02T03:55:10.642Z,95.5
2017-03-02T03:56:13.104Z,95.5
2017-03-02T03:57:15.560Z,95.5
2017-03-02T03:58:18.775Z,95.5
2017-03-02T03:59:20.734Z,95.5
2017-03-02T04:00:23.691Z,95.5
2017-03-02T04:01:25.976Z,95.4
2017-03-02T04:02:28.772Z,95.5
2017-03-02T04:03:31.479Z,95.4
2017-03-02T04:04:33.944Z,95.4
2017-03-02T04:05:36.244Z,95.4
2017-03-02T04:06:39.205Z,95.4
2017-03-02T04:07:42.193Z,95.4
2017-03-02T04:08:44.421Z,95.4
2017-03-02T04:09:46.881Z,95.4
2017-03-02T04:10:49.337Z,95.4
2017-03-02T04:11:51.798Z,95.4
2017-03-02T04:12:54.756Z,95.4
2017-03-02T04:13:57.553Z,95.4
2017-03-02T04:14:59.525Z,95.4
2017-03-02T04:17:04.887Z,95.4
2017-03-02T04:18:07.342Z,95.4
2017-03-02T04:19:10.386Z,95.4
2017-03-02T04:20:12.686Z,95.4
2017-03-02T04:21:15.154Z,95.4
2017-03-02T04:22:17.635Z,95.4
2017-03-02T04:23:20.599Z,95.4
2017-03-02T04:24:23.313Z,95.4
2017-03-02T04:25:26.330Z,95.4
2017-03-02T04:26:28.322Z,95.4
2017-03-02T04:27:31.309Z,95.4
2017-03-02T04:28:33.271Z,95.4
2017-03-02T04:29:35.983Z,95.3
2017-03-02T04:30:38.441Z,95.3
2017-03-02T04:31:40.896Z,95.3
2017-03-02T04:33:46.265Z,95.3
2017-03-02T04:34:48.991Z,95.3
2017-03-02T04:35:51.280Z,95.3
2017-03-02T04:36:54.243Z,95.3
2017-03-02T04:37:56.697Z,95.3
2017-03-02T04:38:59.150Z,95.3
2017-03-02T04:40:01.873Z,95.3
2017-03-02T04:41:04.340Z,95.3
2017-03-02T04:42:06.797Z,95.3
2017-03-02T04:43:09.767Z,95.3
2017-03-02T04:44:12.232Z,95.3
2017-03-02T04:45:14.941Z,95.3
2017-03-02T04:46:17.397Z,95.3
2017-03-02T04:47:19.853Z,95.3
2017-03-02T04:48:22.137Z,95.3
2017-03-02T04:49:25.098Z,95.3
2017-03-02T04:50:27.839Z,95.3
2017-03-02T04:52:32.561Z,95.3
2017-03-02T04:53:35.368Z,95.3
2017-03-02T04:54:38.354Z,95.3
2017-03-02T04:55:41.076Z,95.3
2017-03-02T04:56:43.044Z,95.3
2017-03-02T04:57:46.548Z,95.3
2017-03-02T04:58:48.332Z,95.3
2017-03-02T04:59:50.795Z,95.3
2017-03-02T05:00:53.848Z,95.3
2017-03-02T05:01:56.849Z,95.3
2017-03-02T05:04:01.209Z,95.3
2017-03-02T05:05:03.671Z,95.3
2017-03-02T05:06:06.840Z,95.3
2017-03-02T05:07:09.128Z,95.3
2017-03-02T05:08:11.922Z,95.3
2017-03-02T05:09:14.390Z,95.3
2017-03-02T05:10:16.854Z,95.3
2017-03-02T05:11:19.560Z,95.3
2017-03-02T05:12:22.018Z,95.3
2017-03-02T05:13:24.471Z,95.3
2017-03-02T05:14:27.428Z,95.3
2017-03-02T05:15:30.424Z,95.3
2017-03-02T05:16:32.678Z,95.3
2017-03-02T05:17:35.155Z,95.3
2017-03-02T05:18:37.612Z,95.3
2017-03-02T05:19:40.109Z,95.3
2017-03-02T05:20:42.560Z,95.3
2017-03-02T05:21:45.611Z,95.3
2017-03-02T05:22:48.070Z,95.3
2017-03-02T05:23:50.526Z,95.3
2017-03-02T05:24:52.823Z,95.3
2017-03-02T05:25:55.789Z,95.3
2017-03-02T05:26:58.545Z,95.3
2017-03-02T05:28:01.007Z,95.3
2017-03-02T05:29:03.310Z,95.3
2017-03-02T05:30:05.780Z,95.3
2017-03-02T05:31:08.743Z,95.3
2017-03-02T05:32:11.466Z,95.3
2017-03-02T05:33:13.784Z,95.3
2017-03-02T05:34:16.789Z,95.3
2017-03-02T05:35:18.745Z,95.3
2017-03-02T05:36:21.537Z,95.3
2017-03-02T05:37:24.241Z,95.3
2017-03-02T05:38:26.698Z,95.3
2017-03-02T05:39:29.164Z,95.3
2017-03-02T05:40:31.620Z,95.3
2017-03-02T05:41:34.575Z,95.3
2017-03-02T05:42:37.110Z,95.3
2017-03-02T05:43:39.564Z,95.3
2017-03-02T05:44:42.022Z,95.3
2017-03-02T05:45:44.979Z,95.3
2017-03-02T05:47:50.092Z,95.3
2017-03-02T05:48:52.547Z,95.2
2017-03-02T05:49:55.349Z,95.2
2017-03-02T05:50:57.802Z,95.2
2017-03-02T05:52:00.266Z,95.2
2017-03-02T05:53:02.976Z,95.2
2017-03-02T05:54:05.442Z,95.2
2017-03-02T05:55:07.897Z,95.2
2017-03-02T05:56:10.874Z,95.2
2017-03-02T05:57:13.335Z,95.2
2017-03-02T05:58:16.041Z,95.2
2017-03-02T05:59:18.330Z,95.2
2017-03-02T06:00:20.807Z,95.2
2017-03-02T06:01:23.768Z,95.2
2017-03-02T06:02:26.221Z,95.2
2017-03-02T06:03:28.937Z,95.2
2017-03-02T06:04:31.391Z,95.2
2017-03-02T06:05:33.877Z,95.2
2017-03-02T06:06:36.345Z,95.2
2017-03-02T06:07:39.310Z,95.2
2017-03-02T06:09:44.499Z,95.1
2017-03-02T06:10:47.107Z,95.1
2017-03-02T06:11:49.560Z,95.1
2017-03-02T06:12:52.013Z,95.1
2017-03-02T06:13:54.844Z,95.1
2017-03-02T06:14:57.565Z,95.1
2017-03-02T06:16:00.022Z,95.1
2017-03-02T06:17:02.477Z,95.1
2017-03-02T06:18:04.940Z,95
2017-03-02T06:19:07.909Z,95
2017-03-02T06:20:11.204Z,95
2017-03-02T06:21:12.666Z,95
2017-03-02T06:22:15.672Z,95
2017-03-02T06:23:17.809Z,95
2017-03-02T06:24:20.616Z,95
2017-03-02T06:25:23.399Z,95
2017-03-02T06:26:25.847Z,95
2017-03-02T06:27:28.313Z,95
2017-03-02T06:28:30.811Z,95
2017-03-02T06:29:34.302Z,95
2017-03-02T06:30:36.172Z,95
2017-03-02T06:31:38.628Z,95
2017-03-02T06:32:41.592Z,95
2017-03-02T06:33:44.052Z,95
2017-03-02T06:34:46.338Z,95
2017-03-02T06:35:49.557Z,95.1
2017-03-02T06:36:51.862Z,95.1
2017-03-02T06:37:54.320Z,95.1
2017-03-02T06:38:57.107Z,95.1
2017-03-02T06:39:59.575Z,95.1
2017-03-02T06:41:02.294Z,95.1
2017-03-02T06:42:04.788Z,95.1
2017-03-02T06:44:09.990Z,95.1
2017-03-02T06:45:12.450Z,95.1
2017-03-02T06:46:15.154Z,95.1
2017-03-02T06:47:18.142Z,95.1
2017-03-02T06:48:20.110Z,95.1
2017-03-02T06:49:22.901Z,95.1
2017-03-02T06:50:25.194Z,95.1
2017-03-02T06:51:28.408Z,95.1
2017-03-02T06:52:30.711Z,95.1
2017-03-02T06:53:33.688Z,95.1
2017-03-02T06:54:36.204Z,95.1
2017-03-02T06:55:38.158Z,95.1
2017-03-02T06:56:41.369Z,95.1
2017-03-02T06:57:43.341Z,95.1
2017-03-02T06:58:45.799Z,95.1
2017-03-02T06:59:48.775Z,95.1
2017-03-02T07:00:51.226Z,95.1
2017-03-02T07:01:53.931Z,95.1
2017-03-02T07:02:56.385Z,95.1
2017-03-02T07:05:01.748Z,95.2
2017-03-02T07:06:04.214Z,95.2
2017-03-02T07:07:06.930Z,95.2
2017-03-02T07:08:09.388Z,95.2
2017-03-02T07:09:11.844Z,95.2
2017-03-02T07:10:14.292Z,95.2
2017-03-02T07:11:17.096Z,95.2
2017-03-02T07:12:19.818Z,95.2
2017-03-02T07:14:24.682Z,95.2
2017-03-02T07:15:27.644Z,95.2
2017-03-02T07:16:30.111Z,95.2
2017-03-02T07:18:35.225Z,95.3
2017-03-02T07:19:37.695Z,95.3
2017-03-02T07:20:40.171Z,95.3
2017-03-02T07:21:43.131Z,95.3
2017-03-02T07:22:45.599Z,95.3
2017-03-02T07:23:48.360Z,95.3
2017-03-02T07:24:50.865Z,95.3
2017-03-02T07:25:53.318Z,95.3
2017-03-02T07:26:55.775Z,95.3
2017-03-02T07:27:58.268Z,95.4
2017-03-02T07:29:01.478Z,95.4
2017-03-02T07:30:03.437Z,95.5
2017-03-02T07:31:06.414Z,95.5
2017-03-02T07:32:08.696Z,95.5
2017-03-02T07:33:11.154Z,95.5
2017-03-02T07:34:14.388Z,95.5
2017-03-02T07:35:16.347Z,95.5
2017-03-02T07:36:19.318Z,95.5
2017-03-02T07:38:24.203Z,95.5
2017-03-02T07:39:26.970Z,95.4
2017-03-02T07:40:29.427Z,95.4
2017-03-02T07:41:31.889Z,95.4
2017-03-02T07:42:34.841Z,95.4
2017-03-02T07:43:37.329Z,95.4
2017-03-02T07:44:40.385Z,95.4
2017-03-02T07:45:42.340Z,95.3
2017-03-02T07:46:45.127Z,95.3
2017-03-02T07:47:47.598Z,95.3
2017-03-02T07:48:50.053Z,95.2
2017-03-02T07:49:53.276Z,95.2
2017-03-02T07:50:55.233Z,95.1
2017-03-02T07:51:58.042Z,95.1
2017-03-02T07:53:00.511Z,95
2017-03-02T07:54:03.306Z,95
2017-03-02T07:55:06.078Z,95
2017-03-02T07:56:08.389Z,95
2017-03-02T07:57:10.859Z,95
2017-03-02T07:59:16.245Z,94.8
2017-03-02T08:00:19.285Z,94.8
2017-03-02T08:01:21.737Z,94.7
2017-03-02T08:02:24.189Z,94.7
2017-03-02T08:03:26.660Z,94.7
2017-03-02T08:04:29.141Z,94.7
2017-03-02T08:05:32.349Z,94.7
2017-03-02T08:06:34.302Z,94.6
2017-03-02T08:07:37.100Z,94.6
2017-03-02T08:08:39.895Z,94.6
2017-03-02T08:09:42.360Z,94.6
2017-03-02T08:10:45.128Z,94.7
2017-03-02T08:11:47.585Z,94.7
2017-03-02T08:12:49.884Z,94.6
2017-03-02T08:13:52.861Z,94.6
2017-03-02T08:14:55.329Z,94.5
2017-03-02T08:15:58.379Z,94.5
2017-03-02T08:17:00.340Z,94.5
2017-03-02T08:18:03.140Z,94.5
2017-03-02T08:19:05.626Z,94.5
2017-03-02T08:20:08.612Z,94.5
2017-03-02T08:21:11.332Z,94.4
2017-03-02T08:22:13.791Z,94.4
2017-03-02T08:23:16.097Z,94.5
2017-03-02T08:24:18.889Z,94.6
2017-03-02T08:25:21.351Z,94.6
2017-03-02T08:26:24.395Z,94.7
2017-03-02T08:27:26.346Z,94.7
2017-03-02T08:28:29.315Z,94.7
2017-03-02T08:29:31.773Z,94.8
2017-03-02T08:30:34.244Z,94.8
2017-03-02T08:31:37.304Z,94.7
2017-03-02T08:32:39.762Z,94.7
2017-03-02T08:33:42.211Z,94.7
2017-03-02T08:34:44.667Z,94.7
2017-03-02T08:35:47.469Z,94.6
2017-03-02T08:36:50.242Z,94.6
2017-03-02T08:37:52.711Z,94.6
2017-03-02T08:39:58.097Z,94.6
2017-03-02T08:41:00.567Z,94.6
2017-03-02T08:42:03.271Z,94.5
2017-03-02T08:43:05.727Z,94.5
2017-03-02T08:44:08.728Z,94.5
2017-03-02T08:45:11.032Z,94.5
2017-03-02T08:46:13.513Z,94.5
2017-03-02T08:47:16.270Z,94.5
2017-03-02T08:48:18.899Z,94.5
2017-03-02T08:49:21.351Z,94.5
2017-03-02T08:50:23.969Z,94.5
2017-03-02T08:51:26.421Z,94.5
2017-03-02T08:52:29.685Z,94.5
2017-03-02T08:53:31.471Z,94.5
2017-03-02T08:54:34.293Z,94.5
2017-03-02T08:55:36.762Z,94.5
2017-03-02T08:56:39.558Z,94.5
2017-03-02T08:57:42.261Z,94.5
2017-03-02T08:58:44.721Z,94.4
2017-03-02T08:59:47.176Z,94.5
2017-03-02T09:00:50.139Z,94.5
2017-03-02T09:01:52.609Z,94.4
2017-03-02T09:02:55.086Z,94.4
2017-03-02T09:03:58.061Z,94.4
2017-03-02T09:05:01.064Z,94.4
2017-03-02T09:06:03.034Z,94.3
2017-03-02T09:07:05.484Z,94.3
2017-03-02T09:08:08.615Z,94.3
2017-03-02T09:09:10.899Z,94.3
2017-03-02T09:10:13.369Z,94.3
2017-03-02T09:11:16.326Z,94.2
2017-03-02T09:12:18.949Z,94.3
2017-03-02T09:13:21.465Z,94.3
2017-03-02T09:14:23.937Z,94.3
2017-03-02T09:15:26.406Z,94.3
2017-03-02T09:16:29.379Z,94.3
2017-03-02T09:17:31.828Z,94.3
2017-03-02T09:18:34.587Z,94.3
2017-03-02T09:20:39.468Z,94.2
2017-03-02T09:21:41.946Z,94.2
2017-03-02T09:22:44.952Z,94.2
2017-03-02T09:23:47.667Z,94.2
2017-03-02T09:24:49.952Z,94.2
2017-03-02T09:25:52.420Z,94.2
2017-03-02T09:26:55.391Z,94.2
2017-03-02T09:27:57.840Z,94.1
2017-03-02T09:29:00.554Z,94.1
2017-03-02T09:30:02.838Z,94.1
2017-03-02T09:31:05.642Z,94.1
2017-03-02T09:32:08.116Z,94.1
2017-03-02T09:33:11.108Z,94.1
2017-03-02T09:35:16.272Z,94.1
2017-03-02T09:36:18.576Z,94.1
2017-03-02T09:37:21.035Z,94.1
2017-03-02T09:39:26.401Z,94.2
2017-03-02T09:40:29.106Z,94.1
2017-03-02T09:41:31.558Z,94.2
2017-03-02T09:42:34.345Z,94.2
2017-03-02T09:43:36.634Z,94.2
2017-03-02T09:44:39.599Z,94.2
2017-03-02T09:45:42.213Z,94.2
2017-03-02T09:46:44.674Z,94.3
2017-03-02T09:47:47.145Z,94.3
2017-03-02T09:48:49.954Z,94.3
2017-03-02T09:49:52.420Z,94.3
2017-03-02T09:50:55.682Z,94.3
2017-03-02T09:51:57.996Z,94.4
2017-03-02T09:53:00.449Z,94.4
2017-03-02T09:54:02.919Z,94.4
2017-03-02T09:55:05.206Z,94.4
2017-03-02T09:56:08.412Z,94.5
2017-03-02T09:57:10.708Z,94.5
2017-03-02T09:58:13.161Z,94.5
2017-03-02T09:59:15.966Z,94.5
2017-03-02T10:01:21.643Z,94.5
2017-03-02T10:02:23.612Z,94.5
2017-03-02T10:03:26.578Z,94.5
2017-03-02T10:04:28.886Z,94.6
2017-03-02T10:05:31.865Z,94.5
2017-03-02T10:06:34.398Z,94.5
2017-03-02T10:07:36.874Z,94.6
2017-03-02T10:08:39.690Z,94.6
2017-03-02T10:09:42.146Z,94.5
2017-03-02T10:10:44.617Z,94.5
2017-03-02T10:11:47.849Z,94.5
2017-03-02T10:12:50.335Z,94.5
2017-03-02T10:13:52.299Z,94.5
2017-03-02T10:14:55.295Z,94.5
2017-03-02T10:15:58.113Z,94.5
2017-03-02T10:17:00.342Z,94.5
2017-03-02T10:18:02.812Z,94.5
2017-03-02T10:19:05.270Z,94.5
2017-03-02T10:20:08.061Z,94.6
2017-03-02T10:21:10.548Z,94.6
2017-03-02T10:22:13.585Z,94.7
2017-03-02T10:23:16.037Z,94.7
2017-03-02T10:24:18.327Z,94.7
2017-03-02T10:25:21.288Z,94.8
2017-03-02T10:26:23.757Z,94.8
2017-03-02T10:27:26.482Z,94.8
2017-03-02T10:28:28.940Z,94.8
2017-03-02T10:29:31.393Z,94.7
2017-03-02T10:30:33.856Z,94.8
2017-03-02T10:31:36.821Z,94.8
2017-03-02T10:32:39.362Z,94.8
2017-03-02T10:33:41.859Z,94.8
2017-03-02T10:34:44.311Z,94.9
2017-03-02T10:35:47.108Z,94.9
2017-03-02T10:36:50.088Z,94.9
2017-03-02T10:38:55.209Z,95
2017-03-02T10:39:57.159Z,95
2017-03-02T10:41:00.158Z,95
2017-03-02T10:42:02.618Z,95.1
2017-03-02T10:43:05.075Z,95.1
2017-03-02T10:44:08.116Z,95.1
2017-03-02T10:45:10.588Z,95.1
2017-03-02T10:46:12.875Z,95.2
2017-03-02T10:47:15.161Z,95.2
2017-03-02T10:48:18.130Z,95.2
2017-03-02T10:49:20.912Z,95.2
2017-03-02T10:50:23.379Z,95.2
2017-03-02T10:52:28.270Z,95.3
2017-03-02T10:53:31.243Z,95.3
2017-03-02T10:54:33.784Z,95.3
2017-03-02T10:55:36.240Z,95.3
2017-03-02T10:56:38.710Z,95.3
2017-03-02T10:57:41.500Z,95.3
2017-03-02T10:58:43.788Z,95.3
2017-03-02T10:59:46.882Z,95.3
2017-03-02T11:00:49.392Z,95.3
2017-03-02T11:01:51.861Z,95.3
2017-03-02T11:02:54.313Z,95.3
2017-03-02T11:03:57.102Z,95.3
2017-03-02T11:04:59.855Z,95.3
2017-03-02T11:06:02.350Z,95.3
2017-03-02T11:07:04.806Z,95.2
2017-03-02T11:08:07.271Z,95.2
2017-03-02T11:10:12.903Z,95.2
2017-03-02T11:11:15.028Z,95.2
2017-03-02T11:12:17.508Z,95.2
2017-03-02T11:13:20.462Z,95.1
2017-03-02T11:14:22.936Z,95.1
2017-03-02T11:15:25.655Z,95.1
2017-03-02T11:16:27.937Z,95.1
2017-03-02T11:17:30.898Z,95
2017-03-02T11:18:33.182Z,95
2017-03-02T11:19:36.154Z,95
2017-03-02T11:20:38.897Z,95
2017-03-02T11:22:43.771Z,94.9
2017-03-02T11:23:46.234Z,94.8
2017-03-02T11:24:49.052Z,94.8
2017-03-02T11:25:51.358Z,94.8
2017-03-02T11:26:54.330Z,94.7
2017-03-02T11:27:56.616Z,94.7
2017-03-02T11:28:59.140Z,94.7
2017-03-02T11:30:02.113Z,94.6
2017-03-02T11:31:04.846Z,94.6
2017-03-02T11:32:07.302Z,94.5
2017-03-02T11:33:09.784Z,94.5
2017-03-02T11:34:12.238Z,94.4
2017-03-02T11:35:15.556Z,94.4
2017-03-02T11:36:17.647Z,94.4
2017-03-02T11:38:22.839Z,94.3
2017-03-02T11:39:25.821Z,94.2
2017-03-02T11:40:28.109Z,94.2
2017-03-02T11:41:30.836Z,94.2
2017-03-02T11:42:33.292Z,94.2
2017-03-02T11:43:35.747Z,94.1
2017-03-02T11:44:39.227Z,94.1
2017-03-02T11:45:41.015Z,94.1
2017-03-02T11:46:43.747Z,94.1
2017-03-02T11:47:46.030Z,94
2017-03-02T11:48:49.000Z,94
2017-03-02T11:49:51.453Z,94
2017-03-02T11:50:53.905Z,94
2017-03-02T11:51:57.131Z,93.9
2017-03-02T11:52:59.611Z,93.9
2017-03-02T11:54:02.441Z,93.9
2017-03-02T11:55:04.246Z,93.9
2017-03-02T11:56:07.225Z,93.8
2017-03-02T11:57:09.950Z,93.8
2017-03-02T11:58:12.404Z,93.8
2017-03-02T11:59:15.203Z,93.8
2017-03-02T12:00:17.666Z,93.7
2017-03-02T12:01:19.948Z,93.7
2017-03-02T12:02:23.693Z,93.7
2017-03-02T12:03:24.971Z,93.7
2017-03-02T12:04:27.932Z,93.7
2017-03-02T12:05:30.390Z,93.6
2017-03-02T12:06:33.178Z,93.6
2017-03-02T12:07:35.893Z,93.6
2017-03-02T12:08:38.183Z,93.6
2017-03-02T12:10:43.888Z,93.6
2017-03-02T12:11:46.361Z,93.6
2017-03-02T12:12:48.953Z,93.6
2017-03-02T12:14:53.883Z,93.6
2017-03-02T12:15:56.844Z,93.6
2017-03-02T12:16:59.310Z,93.6
2017-03-02T12:18:02.034Z,93.6
2017-03-02T12:19:04.508Z,93.6
2017-03-02T12:20:06.806Z,93.6
2017-03-02T12:21:09.785Z,93.6
2017-03-02T12:22:12.261Z,93.6
2017-03-02T12:23:14.977Z,93.6
2017-03-02T12:24:17.433Z,93.6
2017-03-02T12:25:19.923Z,93.6
2017-03-02T12:26:22.746Z,93.6
2017-03-02T12:27:25.222Z,93.6
2017-03-02T12:28:28.435Z,93.6
2017-03-02T12:29:30.718Z,93.6
2017-03-02T12:30:33.183Z,93.6
2017-03-02T12:31:35.633Z,93.6
2017-03-02T12:32:38.588Z,93.6
2017-03-02T12:33:41.295Z,93.6
2017-03-02T12:34:43.583Z,93.6
2017-03-02T12:35:46.045Z,93.6
2017-03-02T12:36:49.005Z,93.6
2017-03-02T12:37:51.457Z,93.5
2017-03-02T12:38:54.496Z,93.5
2017-03-02T12:39:56.460Z,93.5
2017-03-02T12:40:59.430Z,93.5
2017-03-02T12:42:02.257Z,93.5
2017-03-02T12:43:04.737Z,93.4
2017-03-02T12:44:07.437Z,93.4
2017-03-02T12:46:12.139Z,93.4
2017-03-02T12:47:15.107Z,93.3
2017-03-02T12:48:17.557Z,93.3
2017-03-02T12:49:20.260Z,93.3
2017-03-02T12:50:22.544Z,93.3
2017-03-02T12:51:25.514Z,93.3
2017-03-02T12:52:27.985Z,93.3
2017-03-02T12:53:30.320Z,93.3
2017-03-02T12:54:33.387Z,93.3
2017-03-02T12:55:35.862Z,93.3
2017-03-02T12:56:38.322Z,93.4
2017-03-02T12:57:41.290Z,93.4
2017-03-02T12:58:43.749Z,93.4
2017-03-02T12:59:46.507Z,93.4
2017-03-02T13:00:48.966Z,93.4
2017-03-02T13:01:51.432Z,93.4
2017-03-02T13:02:54.397Z,93.5
2017-03-02T13:03:56.851Z,93.5
2017-03-02T13:04:59.556Z,93.6
2017-03-02T13:06:02.021Z,93.6
2017-03-02T13:07:04.480Z,93.7
2017-03-02T13:08:06.971Z,93.7
2017-03-02T13:09:09.956Z,93.7
2017-03-02T13:10:12.665Z,93.8
2017-03-02T13:11:15.115Z,93.8
2017-03-02T13:12:17.413Z,93.9
2017-03-02T13:13:20.213Z,93.9
2017-03-02T13:14:22.668Z,94
2017-03-02T13:15:26.405Z,94
2017-03-02T13:16:27.857Z,94
2017-03-02T13:17:30.657Z,94
2017-03-02T13:18:33.116Z,94.1
2017-03-02T13:19:36.082Z,94.1
2017-03-02T13:20:38.799Z,94.1
2017-03-02T13:23:46.063Z,94.2
2017-03-02T13:24:49.043Z,94.2
2017-03-02T13:25:51.759Z,94.3
2017-03-02T13:26:54.736Z,94.3
2017-03-02T13:27:57.212Z,94.3
2017-03-02T13:28:59.160Z,94.3
2017-03-02T13:30:02.118Z,94.3
2017-03-02T13:31:04.829Z,94.3
2017-03-02T13:32:07.290Z,94.4
2017-03-02T13:33:09.737Z,94.4
2017-03-02T13:34:12.189Z,94.4
2017-03-02T13:35:15.160Z,94.4
2017-03-02T13:36:17.919Z,94.4
2017-03-02T13:38:22.777Z,94.4
2017-03-02T13:39:25.250Z,94.4
2017-03-02T13:40:27.539Z,94.4
2017-03-02T13:41:30.778Z,94.4
2017-03-02T13:42:33.228Z,94.5
2017-03-02T13:43:35.522Z,94.5
2017-03-02T13:44:38.491Z,94.5
2017-03-02T13:45:40.955Z,94.5
2017-03-02T13:46:43.492Z,94.5
2017-03-02T13:47:45.815Z,94.5
2017-03-02T13:48:48.951Z,94.5
2017-03-02T13:49:51.236Z,94.5
2017-03-02T13:50:53.702Z,94.5
2017-03-02T13:51:56.967Z,94.5
2017-03-02T13:52:58.925Z,94.5
2017-03-02T13:54:01.896Z,94.5
2017-03-02T13:55:04.350Z,94.5
2017-03-02T13:56:06.638Z,94.5
2017-03-02T13:57:09.863Z,94.5
2017-03-02T13:58:12.160Z,94.5
2017-03-02T13:59:14.628Z,94.5
2017-03-02T14:00:17.113Z,94.5
2017-03-02T14:01:19.749Z,94.5
2017-03-02T14:02:22.864Z,94.5
2017-03-02T14:04:27.742Z,94.5
2017-03-02T14:05:30.200Z,94.5
2017-03-02T14:06:33.156Z,94.5
2017-03-02T14:07:35.913Z,94.5
2017-03-02T14:08:37.888Z,94.5
2017-03-02T14:09:40.856Z,94.5
2017-03-02T14:10:43.308Z,94.5
2017-03-02T14:11:45.771Z,94.5
2017-03-02T14:12:48.713Z,94.5
2017-03-02T14:13:51.168Z,94.5
2017-03-02T14:14:53.629Z,94.5
2017-03-02T14:15:56.095Z,94.5
2017-03-02T14:16:59.060Z,94.5
2017-03-02T14:18:01.766Z,94.5
2017-03-02T14:19:04.223Z,94.5
2017-03-02T14:20:06.678Z,94.5
2017-03-02T14:21:09.482Z,94.5
2017-03-02T14:22:11.950Z,94.4
2017-03-02T14:23:14.663Z,94.4
2017-03-02T14:24:17.138Z,94.4
2017-03-02T14:25:20.132Z,94.4
2017-03-02T14:26:22.591Z,94.4
2017-03-02T14:27:25.057Z,94.4
2017-03-02T14:28:27.819Z,94.4
2017-03-02T14:29:30.273Z,94.4
2017-03-02T14:30:32.567Z,94.4
2017-03-02T14:31:35.540Z,94.3
2017-03-02T14:32:37.826Z,94.3
2017-03-02T14:33:41.039Z,94.3